Time;durP1;ratioP1;P1;durP2;ratioP2;P2;SDS_P1;SDS_P2;PMS_P1;PMS_P2;Temp;Humidity;BMP_temperature;BMP_pressure;BME280_temperature;BME280_humidity;BME280_pressure;Samples;Min_cycle;Max_cycle;Signal;HPM_P1;HPM_P2
2023/07/01 00:00:34;;;;;;;3.40;2.00;;;;;;;19.27;51.78;98711.78;7168073;40;20288;31
2023/07/01 00:06:09;;;;;;;3.40;2.10;;;;;;;19.13;50.99;98719.34;7173467;40;20282;31
2023/07/01 00:11:45;;;;;;;2.53;1.90;;;;;;;19.02;51.06;98700.19;7192428;40;20303;31
2023/07/01 00:22:10;;;;;;;4.40;2.10;;;;;;;19.02;50.07;98689.25;7233984;40;20273;31
2023/07/01 00:32:45;;;;;;;2.37;2.00;;;;;;;18.93;50.40;98683.31;7311344;39;20244;31
2023/07/01 00:43:24;;;;;;;3.87;2.05;;;;;;;18.95;50.47;98675.72;7303290;39;21091;31
2023/07/01 00:49:00;;;;;;;3.33;2.10;;;;;;;18.75;51.38;98678.72;7277355;40;21086;31
2023/07/01 00:59:25;;;;;;;2.10;1.80;;;;;;;18.71;51.03;98677.53;7216819;40;21293;31
2023/07/01 01:05:01;;;;;;;3.37;1.90;;;;;;;18.57;51.53;98669.75;7234858;40;21031;31
2023/07/01 01:10:35;;;;;;;2.20;2.00;;;;;;;18.41;51.93;98665.72;7244080;39;21129;31
2023/07/01 01:16:09;;;;;;;5.03;2.10;;;;;;;18.46;51.80;98672.19;7254325;40;20249;31
2023/07/01 01:21:46;;;;;;;7.60;2.30;;;;;;;18.47;51.80;98662.09;7224177;40;20284;31
2023/07/01 01:27:20;;;;;;;2.20;1.80;;;;;;;18.47;51.66;98664.81;7263525;39;20382;31
2023/07/01 01:32:56;;;;;;;2.90;2.20;;;;;;;18.37;51.29;98664.53;7216126;40;21347;31
2023/07/01 01:38:28;;;;;;;2.23;2.00;;;;;;;18.42;52.02;98653.75;7186993;40;21141;31
2023/07/01 01:44:03;;;;;;;3.67;1.97;;;;;;;18.43;51.83;98655.41;7161827;40;21134;31
2023/07/01 01:49:40;;;;;;;3.27;2.13;;;;;;;18.48;52.06;98647.38;7178786;40;21262;31
2023/07/01 01:55:15;;;;;;;3.13;2.10;;;;;;;18.30;52.29;98645.50;7266653;39;21011;31
2023/07/01 02:06:48;;;;;;;3.90;2.30;;;;;;;18.07;52.85;98641.84;7302623;39;20325;31
2023/07/01 02:17:28;;;;;;;4.90;2.00;;;;;;;18.05;53.18;98641.22;7283948;39;21250;31
2023/07/01 02:28:08;;;;;;;4.03;2.20;;;;;;;18.03;52.86;98631.34;7226669;39;21263;31
2023/07/01 02:33:28;;;;;;;3.20;2.10;;;;;;;18.01;53.24;98628.03;7214831;40;21159;31
2023/07/01 02:38:47;;;;;;;3.25;1.70;;;;;;;18.03;53.33;98630.56;7223890;40;20261;31
2023/07/01 02:44:23;;;;;;;4.13;2.30;;;;;;;18.07;53.29;98631.75;7200490;40;21278;31
2023/07/01 02:49:58;;;;;;;4.20;2.10;;;;;;;18.19;52.86;98635.38;7219272;40;21140;31
2023/07/01 02:55:19;;;;;;;2.80;1.90;;;;;;;18.33;52.33;98645.06;7234427;40;21085;31
2023/07/01 03:00:54;;;;;;;3.43;2.00;;;;;;;18.38;52.22;98638.91;7265978;39;21160;31
2023/07/01 03:06:14;;;;;;;4.17;2.20;;;;;;;18.52;51.54;98636.84;7231389;40;21047;31
2023/07/01 03:11:51;;;;;;;8.53;2.40;;;;;;;18.47;51.89;98627.41;7255430;40;22191;31
2023/07/01 03:17:24;;;;;;;2.87;1.90;;;;;;;18.45;51.91;98632.28;7149506;40;21097;31
2023/07/01 03:22:45;;;;;;;3.10;2.00;;;;;;;18.50;51.83;98642.53;7183835;40;21098;31
2023/07/01 03:28:20;;;;;;;3.70;2.23;;;;;;;18.57;51.87;98643.28;7179113;40;20378;31
2023/07/01 03:33:56;;;;;;;2.43;1.83;;;;;;;18.54;52.06;98632.84;7170824;40;21123;31
2023/07/01 03:39:29;;;;;;;3.40;1.90;;;;;;;18.53;51.79;98631.16;7184882;40;21094;31
2023/07/01 03:44:49;;;;;;;3.93;2.03;;;;;;;18.58;52.59;98636.75;7173957;40;21087;31
2023/07/01 03:50:26;;;;;;;3.47;1.80;;;;;;;18.56;52.26;98630.69;7183581;40;21122;31
2023/07/01 03:56:01;;;;;;;3.93;2.00;;;;;;;18.65;51.80;98637.50;7196269;40;21220;31
2023/07/01 04:01:23;;;;;;;4.67;1.80;;;;;;;18.63;52.24;98626.00;7203678;40;21074;31
2023/07/01 04:07:01;;;;;;;5.03;1.97;;;;;;;18.60;52.88;98618.28;7225859;40;21168;31
2023/07/01 04:12:21;;;;;;;3.50;1.77;;;;;;;18.65;52.03;98623.84;7184003;40;21022;31
2023/07/01 04:17:56;;;;;;;3.93;1.90;;;;;;;18.56;52.21;98622.50;7211968;40;21103;31
2023/07/01 04:23:32;;;;;;;3.30;1.80;;;;;;;18.57;52.79;98626.91;7257803;39;20396;31
2023/07/01 04:28:52;;;;;;;4.67;1.77;;;;;;;18.66;52.28;98624.69;7222730;40;21088;31
2023/07/01 04:34:28;;;;;;;3.93;2.00;;;;;;;18.64;52.38;98624.09;7235435;40;20994;31
2023/07/01 04:40:02;;;;;;;4.70;2.10;;;;;;;18.60;52.58;98615.53;7163899;40;21111;31
2023/07/01 04:45:39;;;;;;;3.07;1.90;;;;;;;18.62;52.94;98605.22;7199792;40;20237;31
2023/07/01 04:51:12;;;;;;;4.13;2.07;;;;;;;18.62;53.12;98612.56;7219331;40;21023;31
2023/07/01 04:56:48;;;;;;;6.37;2.33;;;;;;;18.53;53.19;98606.59;7164745;40;21120;31
2023/07/01 05:02:23;;;;;;;4.47;2.27;;;;;;;18.56;53.63;98595.22;7215024;40;20313;31
2023/07/01 05:07:59;;;;;;;4.83;1.90;;;;;;;18.60;54.17;98592.88;7232296;40;20995;31
2023/07/01 05:13:35;;;;;;;4.05;2.20;;;;;;;18.67;53.77;98596.31;7058690;41;20260;31
2023/07/01 05:18:56;;;;;;;4.60;2.05;;;;;;;18.77;53.29;98600.16;7054522;41;20406;31
2023/07/01 05:24:33;;;;;;;8.33;2.50;;;;;;;18.72;53.35;98597.28;7179327;40;21316;31
2023/07/01 05:30:07;;;;;;;6.43;2.20;;;;;;;18.77;53.90;98594.69;7161355;40;20272;31
2023/07/01 05:35:42;;;;;;;3.67;2.10;;;;;;;18.84;53.80;98606.34;7152623;40;21071;31
2023/07/01 05:41:02;;;;;;;5.03;2.30;;;;;;;18.92;53.89;98607.88;7168242;40;21130;31
2023/07/01 05:46:40;;;;;;;3.08;2.40;;;;;;;18.80;54.07;98593.38;7156712;40;21091;31
2023/07/01 05:52:14;;;;;;;3.10;2.20;;;;;;;18.99;54.09;98600.44;7141546;40;21055;31
2023/07/01 05:57:55;;;;;;;;;;;;;;;;;;;;;
2023/07/01 06:03:22;;;;;;;4.27;2.50;;;;;;;19.26;54.30;98595.34;7096028;41;21373;31
2023/07/01 06:08:43;;;;;;;7.90;2.50;;;;;;;19.36;54.52;98596.41;6854269;41;20306;31
2023/07/01 06:14:04;;;;;;;3.53;2.23;;;;;;;19.37;53.47;98600.81;7133313;40;21123;31
2023/07/01 06:19:37;;;;;;;2.20;1.80;;;;;;;19.31;53.80;98600.91;7238902;40;20295;31
2023/07/01 06:24:58;;;;;;;5.20;2.40;;;;;;;19.33;54.43;98599.63;7251886;39;20406;31
2023/07/01 06:35:41;;;;;;;4.67;2.37;;;;;;;19.36;55.32;98595.56;7330310;39;20252;31
2023/07/01 06:41:14;;;;;;;7.34;2.82;;;;;;;19.56;56.09;98604.28;7200164;40;21102;31
2023/07/01 06:46:35;;;;;;;4.97;2.23;;;;;;;19.64;55.54;98593.00;7171319;40;21011;31
2023/07/01 06:52:11;;;;;;;6.23;2.77;;;;;;;19.69;56.43;98593.09;7176081;40;21037;31
2023/07/01 06:57:32;;;;;;;5.50;2.25;;;;;;;19.72;56.83;98595.34;7183314;40;20302;31
2023/07/01 07:02:52;;;;;;;4.30;2.30;;;;;;;20.04;55.95;98593.03;7203027;40;20316;31
2023/07/01 07:08:26;;;;;;;4.40;2.30;;;;;;;20.15;55.08;98592.16;7198591;40;21157;31
2023/07/01 07:13:45;;;;;;;3.60;2.20;;;;;;;20.34;53.56;98594.75;7232968;40;21133;31
2023/07/01 07:19:18;;;;;;;4.20;2.20;;;;;;;20.58;54.41;98577.13;7229906;40;21103;31
2023/07/01 07:24:55;;;;;;;5.63;2.43;;;;;;;20.85;54.27;98582.81;7164069;40;20322;31
2023/07/01 07:30:29;;;;;;;5.43;2.40;;;;;;;21.13;52.80;98567.16;7172925;40;21132;31
2023/07/01 07:35:49;;;;;;;4.30;2.20;;;;;;;21.44;51.63;98562.97;7214136;40;21287;31
2023/07/01 07:41:24;;;;;;;4.45;2.20;;;;;;;21.26;49.78;98548.69;7236223;40;20241;31
2023/07/01 07:46:47;;;;;;;2.50;1.90;;;;;;;21.36;50.20;98552.44;7200818;40;21225;31
2023/07/01 07:52:08;;;;;;;4.00;2.25;;;;;;;21.43;49.60;98547.59;7195270;40;20417;31
2023/07/01 07:57:44;;;;;;;5.10;2.30;;;;;;;21.36;49.25;98540.63;7203495;40;21260;31
2023/07/01 08:03:19;;;;;;;3.70;2.10;;;;;;;21.56;48.64;98544.50;7179636;40;21120;31
2023/07/01 08:08:39;;;;;;;3.00;2.10;;;;;;;21.81;47.89;98543.16;7196186;40;20348;31
2023/07/01 08:14:15;;;;;;;4.85;1.90;;;;;;;21.62;47.67;98528.09;7196378;40;20491;31
2023/07/01 08:19:35;;;;;;;6.15;2.30;;;;;;;21.61;47.24;98531.94;7147618;40;21045;31
2023/07/01 08:25:10;;;;;;;3.53;2.00;;;;;;;21.78;46.94;98516.22;7217045;40;20282;31
2023/07/01 08:35:50;;;;;;;2.53;2.00;;;;;;;21.62;48.38;98512.47;7261800;40;20288;31
2023/07/01 08:46:29;;;;;;;5.53;2.40;;;;;;;21.58;49.33;98516.81;7253381;40;20284;31
2023/07/01 08:52:06;;;;;;;4.50;2.03;;;;;;;21.48;49.33;98522.16;7216025;40;21102;31
2023/07/01 08:57:42;;;;;;;3.22;2.35;;;;;;;21.36;50.94;98519.53;7188117;40;21154;31
2023/07/01 09:03:17;;;;;;;3.33;2.15;;;;;;;21.49;50.60;98513.69;7218652;40;20304;31
2023/07/01 09:08:45;;;;;;;3.25;1.80;;;;;;;21.64;50.78;98514.94;7185794;40;20262;31
2023/07/01 09:14:21;;;;;;;3.85;2.33;;;;;;;21.62;50.09;98507.00;7204958;40;21115;31
2023/07/01 09:20:04;;;;;;;2.25;2.00;;;;;;;21.56;50.29;98503.34;7275447;40;20323;31
2023/07/01 09:25:42;;;;;;;3.15;2.30;;;;;;;21.66;50.77;98496.34;7299219;40;21571;31
2023/07/01 09:31:18;;;;;;;8.10;2.20;;;;;;;21.68;51.32;98499.63;7210003;40;21081;31
2023/07/01 09:36:38;;;;;;;4.28;2.05;;;;;;;21.73;50.87;98496.97;7238863;40;21203;31
2023/07/01 09:42:18;;;;;;;3.58;2.10;;;;;;;21.71;51.26;98488.19;7225124;40;21140;31
2023/07/01 09:47:55;;;;;;;4.70;1.80;;;;;;;21.70;50.97;98486.50;7174930;40;21331;31
2023/07/01 09:53:36;;;;;;;6.80;2.20;;;;;;;21.57;51.12;98488.56;7187854;40;20284;31
2023/07/01 09:59:11;;;;;;;3.78;2.20;;;;;;;21.44;51.11;98482.63;7205544;40;21136;31
2023/07/01 10:04:48;;;;;;;4.53;2.20;;;;;;;21.42;52.26;98476.53;7203051;40;21119;31
2023/07/01 10:10:26;;;;;;;4.20;2.30;;;;;;;21.44;51.83;98480.72;7227987;40;21082;31
2023/07/01 10:16:02;;;;;;;3.97;2.40;;;;;;;21.49;52.60;98472.56;7136052;40;21182;31
2023/07/01 10:21:45;;;;;;;3.05;1.90;;;;;;;21.49;52.52;98479.94;7132368;40;21110;31
2023/07/01 10:27:21;;;;;;;2.72;2.00;;;;;;;21.56;52.74;98480.56;7147645;40;21134;31
2023/07/01 10:32:57;;;;;;;4.17;1.90;;;;;;;21.49;52.54;98472.56;7212106;40;20285;31
2023/07/01 10:38:36;;;;;;;2.70;2.10;;;;;;;21.49;53.00;98469.81;7210620;40;20280;31
2023/07/01 10:44:38;;;;;;;1.98;1.80;;;;;;;21.55;52.67;98473.41;7225809;40;20298;31
2023/07/01 10:50:18;;;;;;;3.30;2.10;;;;;;;21.64;53.07;98468.31;7200434;40;20275;31
2023/07/01 10:55:55;;;;;;;2.50;1.95;;;;;;;21.60;53.09;98462.53;7197904;40;21146;31
2023/07/01 11:02:00;;;;;;;2.67;1.75;;;;;;;21.64;53.95;98466.41;7206732;40;20293;31
2023/07/01 11:07:25;;;;;;;3.35;2.20;;;;;;;21.64;54.67;98452.69;7191847;40;20345;31
2023/07/01 11:28:15;;;;;;;3.30;1.80;;;;;;;21.87;55.40;98421.41;7337754;39;20387;31
2023/07/01 11:33:35;;;;;;;2.28;1.95;;;;;;;22.14;54.49;98426.94;7313217;39;21111;31
2023/07/01 11:44:16;;;;;;;2.30;1.70;;;;;;;22.17;54.79;98412.66;7294719;40;21318;31
2023/07/01 11:54:56;;;;;;;3.30;1.83;;;;;;;22.06;54.80;98420.00;7293594;39;20303;31
2023/07/01 12:05:37;;;;;;;2.95;2.00;;;;;;;22.04;54.85;98408.44;7291022;39;20246;31
2023/07/01 12:11:29;;;;;;;4.22;2.00;;;;;;;22.33;54.40;98403.50;7237290;40;21074;31
2023/07/01 12:17:22;;;;;;;2.05;1.65;;;;;;;22.58;54.16;98394.63;7233820;40;20256;31
2023/07/01 12:22:51;;;;;;;3.92;1.70;;;;;;;22.57;53.27;98399.28;7174401;40;20254;31
2023/07/01 12:28:28;;;;;;;3.62;1.87;;;;;;;22.38;53.52;98396.09;7175879;40;21190;31
2023/07/01 12:33:49;;;;;;;3.90;1.80;;;;;;;22.27;53.84;98399.87;7188279;40;20266;31
2023/07/01 12:39:24;;;;;;;3.03;1.95;;;;;;;22.24;53.73;98399.56;7183044;40;21182;31
2023/07/01 12:44:58;;;;;;;2.58;1.90;;;;;;;22.33;53.57;98393.34;7184533;40;21123;31
2023/07/01 12:50:33;;;;;;;2.60;1.83;;;;;;;22.34;53.67;98399.63;7127630;40;21002;31
2023/07/01 12:55:54;;;;;;;2.50;1.87;;;;;;;22.24;54.06;98400.41;7108968;40;21317;31
2023/07/01 13:01:31;;;;;;;4.15;2.00;;;;;;;22.23;53.90;98400.66;7134925;40;21096;31
2023/07/01 13:06:51;;;;;;;2.90;1.52;;;;;;;22.27;53.59;98404.53;7176462;40;21126;31
2023/07/01 13:12:27;;;;;;;3.78;1.73;;;;;;;22.17;53.45;98394.28;7075009;40;20292;31
2023/07/01 13:18:03;;;;;;;2.95;1.62;;;;;;;22.12;54.24;98390.66;7256171;40;21247;31
2023/07/01 13:28:28;;;;;;;3.75;2.08;;;;;;;22.26;54.37;98384.47;7233275;40;20273;31
2023/07/01 13:39:25;;;;;;;2.00;1.70;;;;;;;22.17;53.62;98368.75;7282772;39;21281;31
2023/07/01 13:50:03;;;;;;;2.53;1.60;;;;;;;22.35;55.30;98366.44;7312899;39;20253;31
2023/07/01 14:00:48;;;;;;;2.40;1.40;;;;;;;22.67;55.28;98382.06;7300276;39;20356;31
2023/07/01 14:06:22;;;;;;;2.50;1.60;;;;;;;22.67;55.78;98362.81;7255255;40;21199;31
2023/07/01 14:11:57;;;;;;;2.42;1.35;;;;;;;22.83;55.14;98381.06;7223544;40;21240;31
2023/07/01 14:17:33;;;;;;;2.15;1.50;;;;;;;22.70;57.29;98378.78;7195759;40;21023;31
2023/07/01 14:23:10;;;;;;;2.63;1.30;;;;;;;22.55;57.88;98386.91;7211346;40;21131;31
2023/07/01 14:28:43;;;;;;;3.80;1.50;;;;;;;22.36;59.28;98391.97;7226082;40;21078;31
2023/07/01 14:34:20;;;;;;;3.17;1.67;;;;;;;22.12;61.10;98387.91;7186348;40;21043;31
2023/07/01 14:39:57;;;;;;;1.70;1.58;;;;;;;22.14;61.46;98378.34;7170312;40;20238;31
2023/07/01 14:45:28;;;;;;;1.60;1.45;;;;;;;22.30;60.49;98360.91;7185633;40;21296;31
2023/07/01 14:51:02;;;;;;;2.42;1.48;;;;;;;22.59;60.19;98363.31;7162375;40;20277;31
2023/07/01 14:56:37;;;;;;;2.83;1.50;;;;;;;22.54;60.58;98360.53;7154187;40;21134;31
2023/07/01 15:07:16;;;;;;;2.13;1.50;;;;;;;22.30;61.55;98363.66;7211884;40;21358;31
2023/07/01 15:17:49;;;;;;;3.75;1.40;;;;;;;22.07;61.30;98343.97;7292641;39;21259;31
2023/07/01 15:23:25;;;;;;;2.30;1.60;;;;;;;22.21;61.76;98347.91;7336807;39;20281;31
2023/07/01 15:29:00;;;;;;;2.30;2.10;;;;;;;22.31;60.69;98350.75;7246987;40;20277;31
2023/07/01 15:34:20;;;;;;;1.98;1.40;;;;;;;22.14;61.65;98356.38;7196584;40;21045;31
2023/07/01 15:39:55;;;;;;;1.98;1.30;;;;;;;22.17;61.33;98344.88;7234513;40;20261;31
2023/07/01 15:45:30;;;;;;;1.35;1.20;;;;;;;22.21;61.37;98343.25;7240972;39;21129;31
2023/07/01 15:56:07;;;;;;;1.40;1.30;;;;;;;22.10;61.26;98347.00;7214251;40;20284;31
2023/07/01 16:01:27;;;;;;;2.20;1.30;;;;;;;22.02;61.97;98351.06;7189664;40;21034;31
2023/07/01 16:07:02;;;;;;;1.53;1.10;;;;;;;22.07;61.74;98343.97;7273740;39;21459;31
2023/07/01 16:12:46;;;;;;;1.83;1.20;;;;;;;22.07;62.03;98353.03;7234396;40;21041;31
2023/07/01 16:18:21;;;;;;;1.48;1.30;;;;;;;21.88;63.57;98347.06;7215882;40;20269;31
2023/07/01 16:23:59;;;;;;;2.50;1.50;;;;;;;21.84;63.67;98334.13;7164205;40;20351;31
2023/07/01 16:29:35;;;;;;;3.15;1.40;;;;;;;21.88;64.12;98327.03;7148489;40;21062;31
2023/07/01 16:34:55;;;;;;;2.83;1.55;;;;;;;21.77;65.64;98334.31;7115662;41;20418;31
2023/07/01 16:40:33;;;;;;;4.02;1.74;;;;;;;21.65;67.02;98330.91;7151480;40;20280;31
2023/07/01 16:46:07;;;;;;;4.70;1.80;;;;;;;21.54;67.50;98329.16;7166813;40;20280;31
2023/07/01 16:51:42;;;;;;;3.97;1.70;;;;;;;21.48;67.68;98335.69;7219487;40;20984;31
2023/07/01 16:57:17;;;;;;;1.90;1.40;;;;;;;21.34;69.17;98331.69;7228914;40;21030;31
2023/07/01 17:03:24;;;;;;;2.00;1.60;;;;;;;21.26;69.28;98323.91;7196060;40;20325;31
2023/07/01 17:09:03;;;;;;;4.43;1.70;;;;;;;21.24;69.74;98329.63;7185203;40;20255;31
2023/07/01 17:19:45;;;;;;;3.00;1.50;;;;;;;21.33;69.99;98333.59;7284959;39;21191;31
2023/07/01 17:25:20;;;;;;;2.22;1.80;;;;;;;21.33;69.79;98336.31;7240067;40;21080;31
2023/07/01 17:30:40;;;;;;;2.08;1.50;;;;;;;21.33;68.69;98336.31;7203441;40;21061;31
2023/07/01 17:36:17;;;;;;;4.50;1.50;;;;;;;21.23;69.30;98329.91;7235381;40;21141;31
2023/07/01 17:41:40;;;;;;;1.70;1.45;;;;;;;21.20;69.25;98339.47;7155821;40;20242;31
2023/07/01 17:47:24;;;;;;;;;;;;;;;;;;;;;
2023/07/01 17:52:51;;;;;;;2.05;1.60;;;;;;;20.97;71.25;98348.75;7163466;40;21079;31
2023/07/01 17:58:13;;;;;;;1.85;1.62;;;;;;;21.01;70.12;98346.34;7239665;40;21149;31
2023/07/01 18:03:33;;;;;;;1.70;1.50;;;;;;;21.02;71.51;98350.72;7253398;39;21036;31
2023/07/01 18:09:12;;;;;;;2.57;1.50;;;;;;;20.91;73.03;98359.91;7252883;40;21265;31
2023/07/01 18:14:33;;;;;;;4.15;1.67;;;;;;;20.79;73.92;98364.66;7239301;40;21105;31
2023/07/01 18:20:05;;;;;;;2.10;1.60;;;;;;;20.78;74.89;98363.00;7294603;40;20279;31
2023/07/01 18:25:41;;;;;;;2.70;1.50;;;;;;;20.72;76.44;98364.81;7237866;40;20287;31
2023/07/01 18:31:03;;;;;;;3.50;1.75;;;;;;;20.63;75.24;98367.16;7274982;39;21243;31
2023/07/01 18:36:38;;;;;;;2.12;1.60;;;;;;;20.64;76.82;98376.22;7267522;40;21288;31
2023/07/01 18:42:11;;;;;;;3.25;1.70;;;;;;;20.59;77.79;98398.88;7233585;40;20284;31
2023/07/01 18:47:46;;;;;;;2.25;1.42;;;;;;;20.66;76.84;98390.50;7243185;40;21306;31
2023/07/01 18:53:07;;;;;;;2.22;1.55;;;;;;;20.73;76.24;98377.44;7235327;40;21143;31
2023/07/01 18:58:42;;;;;;;1.95;1.70;;;;;;;20.64;77.31;98371.56;7255815;40;20249;31
2023/07/01 19:04:03;;;;;;;5.10;2.80;;;;;;;20.63;74.99;98372.66;7240109;40;20257;31
2023/07/01 19:09:24;;;;;;;3.50;2.97;;;;;;;20.58;74.96;98372.56;7242831;39;21205;31
2023/07/01 19:15:00;;;;;;;3.83;3.30;;;;;;;20.55;75.50;98378.56;7269429;39;21049;31
2023/07/01 19:20:53;;;;;;;3.58;3.05;;;;;;;20.66;74.34;98394.06;7273901;40;21035;31
2023/07/01 19:26:27;;;;;;;2.70;2.50;;;;;;;20.66;74.65;98407.78;7256161;40;20269;31
2023/07/01 19:32:04;;;;;;;3.55;2.90;;;;;;;20.56;74.32;98404.88;7195248;40;21119;31
2023/07/01 19:37:39;;;;;;;3.08;2.78;;;;;;;20.61;74.17;98394.00;7237860;40;21073;31
2023/07/01 19:43:00;;;;;;;2.87;2.63;;;;;;;20.57;74.76;98405.69;7192957;40;20274;31
2023/07/01 19:48:36;;;;;;;2.95;2.40;;;;;;;20.57;74.34;98416.66;7223656;40;21082;31
2023/07/01 19:53:56;;;;;;;3.53;2.72;;;;;;;20.46;76.03;98426.59;7240522;40;21162;31
2023/07/01 20:04:37;;;;;;;3.25;2.65;;;;;;;20.42;75.68;98425.44;7257742;40;21405;31
2023/07/01 20:10:13;;;;;;;2.70;2.47;;;;;;;20.50;76.16;98440.63;7278608;39;20352;31
2023/07/01 20:15:49;;;;;;;2.73;2.30;;;;;;;20.51;76.27;98431.31;7208313;40;21227;31
2023/07/01 20:21:21;;;;;;;2.40;2.20;;;;;;;20.48;76.72;98434.56;6925831;41;20373;31
2023/07/01 20:26:57;;;;;;;2.87;2.12;;;;;;;20.50;75.34;98454.31;7165623;40;21134;31
2023/07/01 20:32:33;;;;;;;3.15;2.67;;;;;;;20.54;76.15;98447.25;7199004;40;20257;31
2023/07/01 20:38:10;;;;;;;2.60;2.40;;;;;;;20.52;75.87;98461.22;7155460;40;21195;31
2023/07/01 20:43:30;;;;;;;2.97;2.30;;;;;;;20.59;77.16;98453.66;7110817;40;21000;31
2023/07/01 20:48:49;;;;;;;2.70;2.20;;;;;;;20.53;76.81;98468.34;7136646;40;20329;31
2023/07/01 20:54:31;;;;;;;;;;;;;;;;;;;;;
2023/07/01 20:59:58;;;;;;;3.80;2.23;;;;;;;20.52;76.71;98466.69;7113378;40;21310;31
2023/07/01 21:05:19;;;;;;;2.80;2.25;;;;;;;20.51;77.10;98467.75;7222786;40;20354;31
2023/07/01 21:16:00;;;;;;;4.78;2.60;;;;;;;20.48;77.01;98472.91;7261936;40;20291;31
2023/07/01 21:21:20;;;;;;;3.00;2.33;;;;;;;20.50;76.53;98479.78;7240406;40;20335;31
2023/07/01 21:26:38;;;;;;;2.75;2.53;;;;;;;20.50;77.14;98482.53;7224051;40;20354;31
2023/07/01 21:32:14;;;;;;;3.53;3.10;;;;;;;20.49;77.57;98486.31;7256576;40;20273;31
2023/07/01 21:37:35;;;;;;;3.10;2.72;;;;;;;20.41;76.62;98475.78;7198010;40;21027;31
2023/07/01 21:43:13;;;;;;;3.30;3.00;;;;;;;20.25;76.42;98474.66;7224851;40;20307;31
2023/07/01 21:48:49;;;;;;;6.82;3.00;;;;;;;20.15;76.01;98482.69;7225227;40;20432;31
2023/07/01 21:54:11;;;;;;;4.23;2.70;;;;;;;20.16;75.53;98491.72;7203027;40;21056;31
2023/07/01 21:59:30;;;;;;;3.50;2.63;;;;;;;20.08;74.17;98492.97;7235852;40;21179;31
2023/07/01 22:05:07;;;;;;;4.07;2.27;;;;;;;19.97;73.97;98504.78;7254246;40;21382;31
2023/07/01 22:10:27;;;;;;;3.05;2.50;;;;;;;19.97;74.09;98503.94;7241798;40;20257;31
2023/07/01 22:16:02;;;;;;;3.27;2.17;;;;;;;19.86;73.66;98508.41;7240561;40;21211;31
2023/07/01 22:21:39;;;;;;;3.27;2.50;;;;;;;19.87;72.39;98510.06;7274583;40;21250;31
2023/07/01 22:32:02;;;;;;;3.60;2.47;;;;;;;19.86;72.93;98521.25;7241991;40;20283;31
2023/07/01 22:37:38;;;;;;;3.90;2.53;;;;;;;19.82;73.78;98520.06;7268497;39;21543;31
2023/07/01 22:43:13;;;;;;;3.33;2.53;;;;;;;19.74;73.78;98529.50;7274745;40;20293;31
2023/07/01 22:48:34;;;;;;;3.26;2.74;;;;;;;19.75;73.27;98537.44;7215058;40;21213;31
2023/07/01 22:54:11;;;;;;;4.45;2.80;;;;;;;19.71;72.61;98541.72;7235181;40;20288;31
2023/07/01 22:59:47;;;;;;;3.73;2.53;;;;;;;19.65;73.63;98539.97;7214822;40;21135;31
2023/07/01 23:05:22;;;;;;;3.70;2.67;;;;;;;19.63;72.80;98536.63;7245593;40;21228;31
2023/07/01 23:16:02;;;;;;;4.55;2.60;;;;;;;19.50;73.43;98542.38;7275725;40;20265;31
2023/07/01 23:21:37;;;;;;;4.75;2.65;;;;;;;19.45;72.94;98553.19;7280565;39;21179;31
2023/07/01 23:27:16;;;;;;;2.80;2.40;;;;;;;19.41;73.01;98543.75;7223829;40;21122;31
2023/07/01 23:32:52;;;;;;;3.45;2.40;;;;;;;19.44;71.73;98556.19;7244333;40;21148;31
2023/07/01 23:38:28;;;;;;;3.77;2.50;;;;;;;19.48;71.39;98560.09;7186780;40;20255;31
2023/07/01 23:43:48;;;;;;;3.50;2.40;;;;;;;19.49;71.45;98567.19;7184701;40;20278;31
2023/07/01 23:49:24;;;;;;;3.13;2.33;;;;;;;19.44;71.32;98559.72;7193033;40;21118;31
2023/07/01 23:55:00;;;;;;;3.93;2.60;;;;;;;19.48;71.41;98560.94;7231470;40;21113;31
